Time;durP1;ratioP1;P1;durP2;ratioP2;P2;SDS_P1;SDS_P2;PMS_P1;PMS_P2;Temp;Humidity;BMP_temperature;BMP_pressure;BME280_temperature;BME280_humidity;BME280_pressure;Samples;Min_cycle;Max_cycle;Signal;HPM_P1;HPM_P2
2022/09/29 00:01:32;;;;;;;6.20;4.57;;;8.20;99.90;;;;;;4882719;29;20263;-88
2022/09/29 00:03:58;;;;;;;8.23;4.97;;;8.20;99.90;;;;;;4882194;29;20183;-88
2022/09/29 00:06:24;;;;;;;5.97;4.88;;;8.20;99.90;;;;;;4882824;29;20210;-88
2022/09/29 00:08:50;;;;;;;7.07;4.35;;;8.20;99.90;;;;;;4883000;29;20183;-87
2022/09/29 00:11:18;;;;;;;8.13;4.20;;;8.20;99.90;;;;;;4882913;29;20179;-86
2022/09/29 00:13:45;;;;;;;6.85;4.45;;;8.20;99.90;;;;;;4882550;29;20215;-86
2022/09/29 00:16:12;;;;;;;13.80;4.60;;;8.20;99.90;;;;;;4882698;29;20251;-87
2022/09/29 00:18:38;;;;;;;11.53;4.63;;;8.10;99.90;;;;;;4882356;29;20184;-88
2022/09/29 00:21:09;;;;;;;5.53;4.43;;;8.10;99.90;;;;;;4899147;29;20682;-88
2022/09/29 00:23:36;;;;;;;5.45;4.60;;;8.10;99.90;;;;;;4882415;29;20194;-87
2022/09/29 00:26:17;;;;;;;4.73;4.20;;;8.20;99.90;;;;;;4882541;29;20292;-87
2022/09/29 00:28:52;;;;;;;5.23;3.90;;;8.20;99.90;;;;;;4882247;29;20325;-87
2022/09/29 00:31:19;;;;;;;4.78;4.05;;;8.20;99.90;;;;;;4882278;29;20190;-87
2022/09/29 00:33:45;;;;;;;5.50;4.27;;;8.20;99.90;;;;;;4882310;29;20203;-86
2022/09/29 00:36:15;;;;;;;4.60;3.73;;;8.10;99.90;;;;;;4881959;29;20294;-87
2022/09/29 00:38:42;;;;;;;8.85;4.25;;;8.10;99.90;;;;;;4882281;29;20175;-87
2022/09/29 00:41:16;;;;;;;5.63;3.47;;;8.10;99.90;;;;;;4897848;29;20176;-88
2022/09/29 00:43:59;;;;;;;5.97;4.10;;;8.10;99.90;;;;;;4882178;29;20687;-87
2022/09/29 00:46:33;;;;;;;9.70;3.90;;;8.00;99.90;;;;;;4882026;29;20245;-87
2022/09/29 00:49:04;;;;;;;5.70;3.70;;;8.00;99.90;;;;;;4880282;29;20242;-88
2022/09/29 00:51:34;;;;;;;4.93;3.50;;;8.00;99.90;;;;;;4874871;29;20217;-87
2022/09/29 00:54:00;;;;;;;5.03;4.00;;;8.00;99.90;;;;;;4881906;29;20632;-87
2022/09/29 00:56:27;;;;;;;5.03;3.80;;;7.90;99.90;;;;;;4898575;29;20767;-87
2022/09/29 00:58:58;;;;;;;5.00;3.77;;;8.00;99.90;;;;;;4882073;29;20185;-88
2022/09/29 01:01:27;;;;;;;4.77;3.80;;;7.90;99.90;;;;;;4881677;29;20647;-87
2022/09/29 01:04:16;;;;;;;6.33;4.17;;;7.80;99.90;;;;;;4881939;29;20190;-89
2022/09/29 01:06:52;;;;;;;4.90;3.47;;;7.90;99.90;;;;;;4881206;29;20223;-89
2022/09/29 01:09:22;;;;;;;4.83;3.90;;;7.90;99.90;;;;;;4898175;29;20174;-87
2022/09/29 01:11:51;;;;;;;6.43;3.83;;;7.90;99.90;;;;;;4881368;29;20179;-88
2022/09/29 01:14:18;;;;;;;5.20;4.00;;;8.00;99.90;;;;;;4896848;29;20592;-88
2022/09/29 01:16:44;;;;;;;5.33;3.57;;;7.90;99.90;;;;;;4880768;29;20184;-88
2022/09/29 01:19:29;;;;;;;4.37;3.70;;;7.90;99.90;;;;;;4897088;29;20197;-88
2022/09/29 01:22:10;;;;;;;7.13;4.40;;;7.80;99.90;;;;;;4897197;29;20183;-88
2022/09/29 01:24:55;;;;;;;5.10;3.70;;;7.80;99.90;;;;;;4896818;29;20171;-86
2022/09/29 01:27:38;;;;;;;6.27;4.03;;;7.80;99.90;;;;;;4896992;29;20187;-87
2022/09/29 01:30:13;;;;;;;4.80;3.60;;;7.70;99.90;;;;;;4898330;29;20163;-86
2022/09/29 01:33:06;;;;;;;6.33;4.23;;;7.70;99.90;;;;;;4896506;29;20210;-88
2022/09/29 01:35:46;;;;;;;5.23;3.83;;;7.60;99.90;;;;;;4880775;29;20683;-87
2022/09/29 01:38:33;;;;;;;5.27;3.60;;;7.50;99.90;;;;;;4880932;29;20608;-86
2022/09/29 01:41:15;;;;;;;3.80;3.00;;;7.50;99.90;;;;;;4896536;29;20171;-88
2022/09/29 01:43:56;;;;;;;4.13;3.23;;;7.60;99.90;;;;;;4896461;29;20279;-88
2022/09/29 01:47:04;;;;;;;5.20;3.40;;;7.60;99.90;;;;;;4896571;29;20215;-87
2022/09/29 01:49:33;;;;;;;4.07;3.30;;;7.50;99.90;;;;;;4897795;29;20330;-87
2022/09/29 01:52:09;;;;;;;5.07;3.93;;;7.60;99.90;;;;;;4896470;29;20255;-87
2022/09/29 01:54:44;;;;;;;5.00;4.27;;;7.50;99.90;;;;;;4880620;29;20182;-87
2022/09/29 01:57:28;;;;;;;5.80;3.70;;;7.40;99.90;;;;;;4880794;29;20290;-87
2022/09/29 02:00:00;;;;;;;5.67;4.00;;;7.40;99.90;;;;;;4880948;29;20179;-88
2022/09/29 02:02:50;;;;;;;5.17;3.93;;;7.30;99.90;;;;;;4896410;29;20234;-88
2022/09/29 02:05:40;;;;;;;9.60;4.30;;;7.20;99.90;;;;;;4896217;29;20274;-87
2022/09/29 02:08:24;;;;;;;4.60;3.77;;;7.20;99.90;;;;;;4880683;29;20184;-87
2022/09/29 02:10:58;;;;;;;5.60;3.97;;;7.20;99.90;;;;;;4880821;29;20235;-87
2022/09/29 02:13:24;;;;;;;4.27;3.73;;;7.20;99.90;;;;;;4880613;29;20210;-87
2022/09/29 02:15:54;;;;;;;7.10;4.03;;;7.20;99.90;;;;;;4880304;29;20268;-87
2022/09/29 02:18:25;;;;;;;5.80;3.87;;;7.10;99.90;;;;;;4880565;29;20195;-87
2022/09/29 02:20:51;;;;;;;5.90;4.13;;;7.10;99.90;;;;;;4913391;29;20186;-86
2022/09/29 02:23:18;;;;;;;6.93;4.20;;;7.10;99.90;;;;;;4933650;29;20261;-86
2022/09/29 02:25:46;;;;;;;5.40;4.17;;;7.20;99.90;;;;;;4934924;29;20221;-88
2022/09/29 02:28:12;;;;;;;4.07;3.47;;;7.20;99.90;;;;;;4918009;29;20181;-88
2022/09/29 02:30:39;;;;;;;5.33;3.90;;;7.10;99.90;;;;;;4918095;29;20174;-87
2022/09/29 02:33:16;;;;;;;5.47;3.40;;;7.20;99.90;;;;;;4933734;29;20210;-87
2022/09/29 02:36:06;;;;;;;7.53;4.10;;;7.20;99.90;;;;;;4934778;29;20201;-87
2022/09/29 02:38:46;;;;;;;4.67;3.37;;;7.10;99.90;;;;;;4917948;29;20562;-86
2022/09/29 02:41:44;;;;;;;4.77;3.47;;;7.00;99.90;;;;;;4918151;29;20174;-86
2022/09/29 02:44:31;;;;;;;6.10;3.77;;;7.00;99.90;;;;;;4868783;29;20202;-87
2022/09/29 02:47:28;;;;;;;4.90;3.27;;;7.00;99.90;;;;;;4918062;29;20221;-87
2022/09/29 02:50:17;;;;;;;4.57;3.53;;;7.00;99.90;;;;;;4917612;29;20224;-86
2022/09/29 02:52:52;;;;;;;5.00;3.73;;;7.00;99.90;;;;;;4879156;29;20227;-87
2022/09/29 02:55:39;;;;;;;6.83;3.70;;;7.00;99.90;;;;;;4896672;29;20194;-86
2022/09/29 02:58:28;;;;;;;4.63;3.30;;;6.90;99.90;;;;;;4880436;29;20622;-87
2022/09/29 03:00:54;;;;;;;4.20;2.93;;;6.90;99.90;;;;;;4879837;29;20227;-88
2022/09/29 03:03:20;;;;;;;7.57;3.37;;;6.90;99.90;;;;;;4880106;29;20603;-88
2022/09/29 03:05:46;;;;;;;4.33;2.97;;;6.90;99.90;;;;;;4879727;29;20214;-87
2022/09/29 03:08:12;;;;;;;3.70;3.07;;;6.90;99.90;;;;;;4879957;29;20175;-87
2022/09/29 03:10:38;;;;;;;4.77;3.20;;;6.90;99.90;;;;;;4879940;29;20179;-88
2022/09/29 03:13:04;;;;;;;4.67;3.03;;;6.80;99.90;;;;;;4879682;29;20206;-86
2022/09/29 03:15:30;;;;;;;5.57;3.03;;;6.90;99.90;;;;;;4879899;29;20607;-87
2022/09/29 03:17:56;;;;;;;3.63;2.60;;;7.00;99.90;;;;;;4879954;29;20211;-88
2022/09/29 03:20:22;;;;;;;4.33;3.30;;;6.90;99.90;;;;;;4905004;29;20196;-89
2022/09/29 03:22:49;;;;;;;3.70;2.80;;;6.90;99.90;;;;;;4933333;29;20186;-88
2022/09/29 03:25:15;;;;;;;5.40;3.00;;;6.90;99.90;;;;;;4933254;29;20216;-87
2022/09/29 03:27:41;;;;;;;4.33;3.37;;;6.90;99.90;;;;;;4933423;29;20551;-88
2022/09/29 03:30:08;;;;;;;3.83;2.60;;;6.90;99.90;;;;;;4933431;29;20624;-87
2022/09/29 03:32:34;;;;;;;4.93;3.10;;;6.90;99.90;;;;;;4934649;29;20205;-88
2022/09/29 03:34:59;;;;;;;4.07;3.00;;;6.80;99.90;;;;;;4917362;29;20562;-87
2022/09/29 03:37:25;;;;;;;4.80;3.80;;;6.80;99.90;;;;;;4933972;29;20182;-88
2022/09/29 03:39:52;;;;;;;3.40;2.63;;;6.70;99.90;;;;;;4920327;29;20189;-88
2022/09/29 03:42:21;;;;;;;3.97;3.30;;;6.70;99.90;;;;;;4921277;29;20694;-88
2022/09/29 03:44:47;;;;;;;3.70;3.03;;;6.80;99.90;;;;;;4936677;29;20212;-88
2022/09/29 03:47:13;;;;;;;4.87;2.83;;;6.70;99.90;;;;;;4936722;29;20272;-88
2022/09/29 03:49:38;;;;;;;3.63;3.00;;;6.80;99.90;;;;;;4929769;29;20234;-88
2022/09/29 03:52:04;;;;;;;4.80;3.17;;;6.80;99.90;;;;;;4901437;29;20207;-88
2022/09/29 03:54:30;;;;;;;4.47;3.37;;;6.70;99.90;;;;;;4917422;29;20171;-88
2022/09/29 03:56:56;;;;;;;4.10;2.80;;;6.70;99.90;;;;;;4917480;29;20233;-88
2022/09/29 03:59:22;;;;;;;6.03;3.23;;;6.70;99.90;;;;;;4918762;29;20574;-87
2022/09/29 04:01:48;;;;;;;4.07;3.03;;;6.70;99.90;;;;;;4917134;29;20516;-87
2022/09/29 04:04:14;;;;;;;5.63;3.23;;;6.70;99.90;;;;;;4917046;29;20171;-88
2022/09/29 04:06:40;;;;;;;9.03;3.27;;;6.70;99.90;;;;;;4901629;29;20229;-89
2022/09/29 04:09:05;;;;;;;7.40;2.87;;;6.70;99.90;;;;;;4918324;29;20270;-87
2022/09/29 04:11:31;;;;;;;4.57;3.13;;;6.60;99.90;;;;;;4901591;29;20174;-87
2022/09/29 04:13:57;;;;;;;7.70;3.70;;;6.60;99.90;;;;;;4901534;29;20210;-88
2022/09/29 04:16:23;;;;;;;5.57;3.37;;;6.60;99.90;;;;;;4901411;29;20675;-88
2022/09/29 04:18:49;;;;;;;5.00;3.20;;;6.60;99.90;;;;;;4917035;29;20163;-88
2022/09/29 04:21:15;;;;;;;3.80;2.70;;;6.60;99.90;;;;;;4901131;29;20663;-88
2022/09/29 04:23:41;;;;;;;3.77;3.30;;;6.60;99.90;;;;;;4917191;29;20797;-89
2022/09/29 04:26:07;;;;;;;4.27;3.40;;;6.60;99.90;;;;;;4916790;29;20225;-89
2022/09/29 04:28:35;;;;;;;4.83;3.70;;;6.70;99.90;;;;;;4918245;29;20234;-88
2022/09/29 04:31:01;;;;;;;4.40;3.50;;;6.70;99.90;;;;;;4918000;29;20254;-88
2022/09/29 04:33:30;;;;;;;5.23;3.43;;;6.60;99.90;;;;;;4916938;29;20273;-88
2022/09/29 04:35:57;;;;;;;6.50;4.03;;;6.70;99.90;;;;;;4900798;29;20213;-89
2022/09/29 04:38:23;;;;;;;4.70;3.37;;;6.60;99.90;;;;;;4916626;29;20391;-88
2022/09/29 04:40:49;;;;;;;5.00;3.63;;;6.60;99.90;;;;;;4900862;29;20197;-88
2022/09/29 04:43:15;;;;;;;5.30;3.33;;;6.60;99.90;;;;;;4900624;29;20194;-88
2022/09/29 04:45:40;;;;;;;10.50;3.80;;;6.60;99.90;;;;;;4916186;29;20206;-88
2022/09/29 04:48:06;;;;;;;4.53;3.70;;;6.60;99.90;;;;;;4900692;29;20194;-87
2022/09/29 04:50:32;;;;;;;5.77;3.80;;;6.60;99.90;;;;;;4899240;29;20230;-88
2022/09/29 04:52:59;;;;;;;5.20;3.80;;;6.60;99.90;;;;;;4917594;29;20230;-89
2022/09/29 04:55:25;;;;;;;6.10;4.10;;;6.70;99.90;;;;;;4900495;29;20748;-88
2022/09/29 04:57:53;;;;;;;4.73;3.87;;;6.60;99.90;;;;;;4900483;29;20273;-88
2022/09/29 05:00:20;;;;;;;7.60;4.30;;;6.60;99.90;;;;;;4901102;29;20233;-87
2022/09/29 05:02:46;;;;;;;5.47;4.10;;;6.60;99.90;;;;;;4900180;29;20216;-89
2022/09/29 05:05:12;;;;;;;9.37;4.70;;;6.60;99.90;;;;;;4900095;29;20246;-89
2022/09/29 05:07:40;;;;;;;10.03;4.37;;;6.60;99.90;;;;;;4916163;29;20254;-88
2022/09/29 05:10:08;;;;;;;6.30;4.63;;;6.60;99.90;;;;;;4917080;29;20163;-88
2022/09/29 05:12:35;;;;;;;4.77;3.80;;;6.50;99.90;;;;;;4915993;29;20214;-88
2022/09/29 05:15:01;;;;;;;5.80;4.00;;;6.50;99.90;;;;;;4916029;29;20206;-89
2022/09/29 05:17:26;;;;;;;6.97;4.63;;;6.60;99.90;;;;;;4899964;29;20190;-88
2022/09/29 05:19:52;;;;;;;5.93;4.40;;;6.60;99.90;;;;;;4916149;29;20198;-89
2022/09/29 05:22:23;;;;;;;5.00;3.80;;;6.60;99.90;;;;;;4900362;29;20171;-88
2022/09/29 05:24:53;;;;;;;6.73;4.10;;;6.50;99.90;;;;;;4900231;29;20206;-88
2022/09/29 05:27:21;;;;;;;5.17;4.23;;;6.50;99.90;;;;;;4900247;29;20202;-88
2022/09/29 05:29:47;;;;;;;5.93;4.70;;;6.50;99.90;;;;;;4915363;29;20302;-88
2022/09/29 05:32:13;;;;;;;7.10;4.33;;;6.50;99.90;;;;;;4899842;29;20209;-88
2022/09/29 05:34:39;;;;;;;5.97;4.60;;;6.40;99.90;;;;;;4899894;29;20203;-89
2022/09/29 05:37:05;;;;;;;5.90;4.13;;;6.40;99.90;;;;;;4899858;29;20643;-87
2022/09/29 05:39:33;;;;;;;6.90;4.60;;;6.40;99.90;;;;;;4900098;29;20623;-89
2022/09/29 05:42:01;;;;;;;6.23;4.40;;;6.40;99.90;;;;;;4899738;29;20544;-87
2022/09/29 05:44:27;;;;;;;6.30;4.73;;;6.50;99.90;;;;;;4915545;29;20595;-88
2022/09/29 05:46:53;;;;;;;6.57;4.63;;;6.50;99.90;;;;;;4915821;29;20801;-88
2022/09/29 05:49:18;;;;;;;8.33;4.40;;;6.50;99.90;;;;;;4903456;29;20221;-89
2022/09/29 05:51:44;;;;;;;6.07;4.50;;;6.50;99.90;;;;;;4920948;29;20197;-88
2022/09/29 05:54:11;;;;;;;13.77;4.60;;;6.60;99.90;;;;;;4915432;29;20195;-88
2022/09/29 05:56:37;;;;;;;5.50;4.40;;;6.60;99.90;;;;;;4914915;29;20250;-87
2022/09/29 05:59:03;;;;;;;7.17;4.60;;;6.60;99.90;;;;;;4915555;29;20202;-88
2022/09/29 06:01:32;;;;;;;8.13;4.20;;;6.60;99.90;;;;;;4914706;29;20217;-90
2022/09/29 06:04:01;;;;;;;5.67;4.47;;;6.60;99.90;;;;;;4915724;29;20189;-89
2022/09/29 06:06:28;;;;;;;7.27;4.83;;;6.70;99.90;;;;;;4915695;29;20591;-88
2022/09/29 06:08:56;;;;;;;6.37;4.60;;;6.70;99.90;;;;;;4915918;29;20183;-88
2022/09/29 06:11:26;;;;;;;6.53;4.60;;;6.60;99.90;;;;;;4915998;29;20186;-88
2022/09/29 06:13:55;;;;;;;7.97;5.20;;;6.60;99.90;;;;;;4900224;29;20202;-88
2022/09/29 06:16:24;;;;;;;9.90;5.60;;;6.60;99.90;;;;;;4915766;29;20205;-88
2022/09/29 06:18:52;;;;;;;9.33;5.00;;;6.60;99.90;;;;;;4917009;29;20171;-88
2022/09/29 06:21:24;;;;;;;8.43;5.47;;;6.70;99.90;;;;;;4933919;29;20217;-87
2022/09/29 06:23:55;;;;;;;9.50;6.03;;;6.70;99.90;;;;;;4919081;29;20193;-88
2022/09/29 06:26:25;;;;;;;11.10;6.00;;;6.80;99.90;;;;;;4917725;29;20232;-88
2022/09/29 06:28:54;;;;;;;7.93;5.63;;;6.80;99.90;;;;;;4919160;29;20220;-88
2022/09/29 06:31:23;;;;;;;8.47;5.87;;;6.90;99.90;;;;;;4936122;29;20162;-88
2022/09/29 06:33:51;;;;;;;8.13;5.70;;;6.90;99.90;;;;;;4919376;29;20201;-88
2022/09/29 06:39:08;;;;;;;7.60;5.87;;;7.00;99.90;;;;;;4936312;29;20582;-88
2022/09/29 06:41:34;;;;;;;13.00;7.03;;;7.00;99.90;;;;;;4919587;29;20170;-88
2022/09/29 06:44:03;;;;;;;9.50;6.87;;;7.10;99.90;;;;;;4919255;29;20661;-88
2022/09/29 06:46:31;;;;;;;9.60;6.80;;;7.20;99.90;;;;;;4902828;29;20341;-89
2022/09/29 06:48:56;;;;;;;9.20;6.83;;;7.20;99.90;;;;;;4913122;29;20223;-88
2022/09/29 06:51:26;;;;;;;10.43;7.00;;;7.20;99.90;;;;;;4897056;29;20700;-89
2022/09/29 06:53:52;;;;;;;10.60;6.20;;;7.30;99.90;;;;;;4898222;29;20668;-87
2022/09/29 06:56:23;;;;;;;11.40;7.47;;;7.40;99.90;;;;;;4881352;29;20195;-89
2022/09/29 06:58:50;;;;;;;11.97;7.20;;;7.40;99.90;;;;;;4897271;29;20182;-87
2022/09/29 07:01:17;;;;;;;11.13;7.20;;;7.50;99.90;;;;;;4897025;29;20307;-89
2022/09/29 07:03:43;;;;;;;12.07;8.33;;;7.60;99.90;;;;;;4897695;29;20164;-89
2022/09/29 07:06:11;;;;;;;14.23;8.73;;;7.60;99.90;;;;;;4880860;29;20209;-88
2022/09/29 07:08:38;;;;;;;12.47;9.03;;;7.70;99.90;;;;;;4880991;29;20238;-90
2022/09/29 07:11:09;;;;;;;14.50;9.43;;;7.70;99.90;;;;;;4903686;29;20191;-89
2022/09/29 07:13:35;;;;;;;11.23;7.83;;;7.80;99.90;;;;;;4880847;29;20199;-89
2022/09/29 07:16:09;;;;;;;17.50;9.63;;;7.80;99.90;;;;;;4883836;29;20294;-89
2022/09/29 07:18:37;;;;;;;15.07;9.53;;;7.90;99.90;;;;;;4883544;29;20182;-88
2022/09/29 07:21:05;;;;;;;16.93;10.13;;;7.90;99.90;;;;;;4883594;29;20174;-90
2022/09/29 07:23:32;;;;;;;16.13;10.10;;;8.00;99.90;;;;;;4898555;29;20174;-89
2022/09/29 07:25:59;;;;;;;17.60;9.77;;;8.10;99.90;;;;;;4891999;29;20203;-89
2022/09/29 07:28:26;;;;;;;17.03;10.50;;;8.10;99.90;;;;;;4880234;29;20271;-87
2022/09/29 07:31:11;;;;;;;18.63;10.77;;;8.20;99.90;;;;;;4873734;29;20195;-89
2022/09/29 07:33:37;;;;;;;15.93;10.57;;;8.20;99.90;;;;;;4900142;29;20207;-90
2022/09/29 07:36:18;;;;;;;18.30;12.23;;;8.30;99.90;;;;;;4884173;29;20203;-89
2022/09/29 07:38:50;;;;;;;16.47;11.50;;;8.40;99.90;;;;;;4884309;29;20208;-89
2022/09/29 07:41:19;;;;;;;17.70;11.17;;;8.40;99.90;;;;;;4900048;29;20172;-88
2022/09/29 07:43:46;;;;;;;20.83;11.80;;;8.50;99.90;;;;;;4901210;29;20167;-87
2022/09/29 07:46:16;;;;;;;20.70;12.13;;;8.50;99.90;;;;;;4884454;29;20211;-86
2022/09/29 07:48:42;;;;;;;20.00;12.40;;;8.60;99.90;;;;;;4885359;29;20553;-91
2022/09/29 07:51:11;;;;;;;19.70;12.37;;;8.60;99.90;;;;;;4918664;29;20186;-88
2022/09/29 07:53:38;;;;;;;15.03;11.17;;;8.70;99.90;;;;;;4918550;29;20211;-87
2022/09/29 07:56:07;;;;;;;20.27;12.57;;;8.80;99.90;;;;;;4915285;29;20194;-89
2022/09/29 07:58:36;;;;;;;18.43;12.07;;;8.90;99.90;;;;;;4915935;29;20224;-89
2022/09/29 08:01:05;;;;;;;17.80;11.03;;;8.90;99.90;;;;;;4915626;29;20663;-89
2022/09/29 08:03:31;;;;;;;16.85;11.60;;;9.00;99.90;;;;;;4916410;29;20171;-88
2022/09/29 08:05:58;;;;;;;15.20;10.60;;;9.00;99.90;;;;;;4905154;29;20225;-88
2022/09/29 08:08:26;;;;;;;16.73;11.03;;;9.10;99.90;;;;;;4882314;29;20195;-88
2022/09/29 08:11:10;;;;;;;17.73;11.35;;;9.20;99.90;;;;;;4866594;29;20219;-90
2022/09/29 08:13:37;;;;;;;18.65;11.75;;;9.30;99.90;;;;;;4886560;29;20293;-89
2022/09/29 08:16:05;;;;;;;17.48;11.10;;;9.30;99.90;;;;;;4900984;29;20597;-89
2022/09/29 08:18:32;;;;;;;16.60;10.95;;;9.40;99.90;;;;;;4882418;29;20240;-89
2022/09/29 08:20:59;;;;;;;15.07;11.47;;;9.50;99.90;;;;;;4882196;29;20275;-88
2022/09/29 08:23:25;;;;;;;14.25;10.52;;;9.50;99.90;;;;;;4882664;29;20252;-88
2022/09/29 08:26:06;;;;;;;19.60;11.73;;;9.60;99.90;;;;;;4883335;29;20207;-90
2022/09/29 08:28:34;;;;;;;18.17;11.60;;;9.70;99.90;;;;;;4883589;29;20190;-87
2022/09/29 08:31:20;;;;;;;15.75;10.98;;;9.80;99.90;;;;;;4883532;29;20243;-88
2022/09/29 08:33:50;;;;;;;15.40;10.93;;;9.90;99.90;;;;;;4883245;29;20213;-89
2022/09/29 08:36:19;;;;;;;17.10;11.32;;;9.90;99.90;;;;;;4883240;29;20200;-89
2022/09/29 08:38:50;;;;;;;15.23;10.52;;;10.00;99.90;;;;;;4903974;29;20185;-88
2022/09/29 08:41:37;;;;;;;16.10;11.65;;;10.00;99.90;;;;;;4918179;29;20181;-88
2022/09/29 08:44:12;;;;;;;17.77;11.70;;;10.00;99.90;;;;;;4918002;29;20185;-88
2022/09/29 08:46:56;;;;;;;19.58;11.90;;;10.10;99.90;;;;;;4917708;29;20206;-89
2022/09/29 08:49:38;;;;;;;15.82;11.73;;;10.10;99.90;;;;;;4913091;29;20264;-89
2022/09/29 08:52:25;;;;;;;17.73;11.65;;;10.20;99.90;;;;;;4898460;29;20333;-89
2022/09/29 08:54:57;;;;;;;19.02;11.65;;;10.20;99.90;;;;;;4883125;29;20207;-89
2022/09/29 08:57:24;;;;;;;15.57;10.88;;;10.20;99.90;;;;;;4898818;29;20209;-89
2022/09/29 08:59:58;;;;;;;15.18;10.90;;;10.30;99.90;;;;;;4882366;29;20191;-89
2022/09/29 09:03:03;;;;;;;17.00;11.55;;;10.50;99.90;;;;;;4896794;29;20175;-88
2022/09/29 09:05:50;;;;;;;15.20;10.63;;;10.50;99.90;;;;;;4879512;29;20234;-88
2022/09/29 09:08:41;;;;;;;15.13;11.45;;;10.60;99.90;;;;;;4880790;29;20580;-89
2022/09/29 09:11:50;;;;;;;17.02;11.00;;;10.70;99.90;;;;;;4864039;29;20172;-89
2022/09/29 09:14:28;;;;;;;18.13;10.63;;;10.90;99.90;;;;;;4879419;29;20539;-88
2022/09/29 09:17:14;;;;;;;13.82;9.68;;;10.90;99.90;;;;;;4879462;29;20194;-89
2022/09/29 09:19:54;;;;;;;14.60;9.75;;;10.90;99.90;;;;;;4878770;29;20652;-89
2022/09/29 09:22:41;;;;;;;15.45;9.77;;;10.90;99.90;;;;;;4887460;29;20647;-89
2022/09/29 09:25:27;;;;;;;14.10;10.13;;;10.90;99.90;;;;;;4895959;29;20222;-90
2022/09/29 09:28:19;;;;;;;16.48;10.52;;;11.00;99.90;;;;;;4911582;29;20210;-89
2022/09/29 09:30:59;;;;;;;15.10;10.35;;;11.10;99.90;;;;;;4899228;29;20186;-88
2022/09/29 09:33:35;;;;;;;13.02;9.70;;;11.20;99.90;;;;;;4902038;29;20195;-89
2022/09/29 09:36:17;;;;;;;16.63;9.55;;;11.30;99.90;;;;;;4893582;29;20329;-88
2022/09/29 09:38:49;;;;;;;13.57;9.57;;;11.30;99.90;;;;;;4884690;29;20183;-88
2022/09/29 09:41:18;;;;;;;13.68;9.75;;;11.20;99.90;;;;;;4862019;29;20657;-87
2022/09/29 09:43:48;;;;;;;13.00;9.63;;;11.20;99.90;;;;;;4861054;29;20664;-88
2022/09/29 09:46:26;;;;;;;11.43;9.25;;;11.30;99.90;;;;;;4877192;29;20695;-88
2022/09/29 09:49:13;;;;;;;12.77;9.13;;;11.50;99.90;;;;;;4879678;29;20180;-89
2022/09/29 09:52:02;;;;;;;13.13;8.85;;;11.70;99.90;;;;;;4898063;29;20198;-88
2022/09/29 09:54:38;;;;;;;12.00;8.30;;;12.00;99.90;;;;;;4899004;29;20262;-87
2022/09/29 09:57:23;;;;;;;10.07;7.47;;;12.20;99.90;;;;;;4916190;29;20166;-88
2022/09/29 10:00:05;;;;;;;9.27;7.13;;;12.40;99.90;;;;;;4898505;29;20175;-89
2022/09/29 10:02:31;;;;;;;10.93;7.13;;;12.50;99.90;;;;;;4909896;29;20179;-88
2022/09/29 10:04:59;;;;;;;8.13;6.82;;;12.60;99.90;;;;;;4916584;29;20205;-88
2022/09/29 10:07:28;;;;;;;8.55;6.78;;;12.60;99.90;;;;;;4900571;29;20174;-88
2022/09/29 10:09:55;;;;;;;9.07;6.55;;;12.60;99.90;;;;;;4916562;29;20166;-88
2022/09/29 10:12:23;;;;;;;8.90;6.55;;;12.50;99.90;;;;;;4900653;29;20225;-88
2022/09/29 10:14:56;;;;;;;10.68;6.22;;;12.30;99.90;;;;;;4915457;29;20354;-88
2022/09/29 10:17:28;;;;;;;8.45;6.13;;;12.20;99.90;;;;;;4899829;29;20182;-89
2022/09/29 10:19:58;;;;;;;7.80;5.93;;;12.10;99.90;;;;;;4891147;29;20195;-88
2022/09/29 10:22:27;;;;;;;7.47;5.68;;;12.00;99.90;;;;;;4881501;29;20187;-87
2022/09/29 10:25:17;;;;;;;8.77;5.65;;;12.00;99.90;;;;;;4881674;29;20214;-90
2022/09/29 10:27:47;;;;;;;8.38;5.35;;;12.10;99.90;;;;;;4881010;29;20516;-89
2022/09/29 10:30:37;;;;;;;8.93;5.70;;;12.20;99.90;;;;;;4881284;29;20262;-88
2022/09/29 10:33:05;;;;;;;6.38;4.82;;;12.40;99.90;;;;;;4881462;29;20203;-90
2022/09/29 10:35:40;;;;;;;6.63;5.05;;;12.60;99.90;;;;;;4881632;29;20223;-87
2022/09/29 10:38:17;;;;;;;11.68;5.28;;;12.80;99.90;;;;;;4881722;29;20167;-90
2022/09/29 10:41:07;;;;;;;7.82;5.30;;;13.20;99.90;;;;;;4881648;29;20167;-88
2022/09/29 10:43:37;;;;;;;6.13;5.20;;;13.50;99.90;;;;;;4889049;29;20186;-88
2022/09/29 10:46:05;;;;;;;7.35;5.43;;;13.60;99.90;;;;;;4900370;29;20199;-89
2022/09/29 10:48:32;;;;;;;7.50;5.10;;;13.70;99.90;;;;;;4901282;29;20186;-89
2022/09/29 10:51:01;;;;;;;6.88;5.47;;;13.80;99.90;;;;;;4903636;29;20703;-88
2022/09/29 10:53:48;;;;;;;9.25;4.82;;;13.90;99.90;;;;;;4900971;29;20207;-89
2022/09/29 10:56:21;;;;;;;7.85;4.78;;;13.70;99.90;;;;;;4896148;29;20576;-89
2022/09/29 10:59:00;;;;;;;6.60;4.38;;;13.50;99.90;;;;;;4919799;29;20170;-89
2022/09/29 11:01:28;;;;;;;5.78;4.20;;;13.30;99.90;;;;;;4904131;29;20174;-89
2022/09/29 11:04:05;;;;;;;6.57;4.65;;;13.20;99.90;;;;;;4904204;29;20273;-88
2022/09/29 11:06:39;;;;;;;7.97;4.65;;;13.30;99.90;;;;;;4903649;29;20612;-89
2022/09/29 11:09:26;;;;;;;4.10;3.05;;;13.40;99.90;;;;;;4919673;29;20182;-89
2022/09/29 11:11:56;;;;;;;5.38;3.88;;;13.80;99.90;;;;;;4903731;29;20243;-88
2022/09/29 11:14:38;;;;;;;5.70;3.90;;;14.10;99.90;;;;;;4919602;29;20297;-89
2022/09/29 11:17:42;;;;;;;5.25;3.88;;;14.30;99.90;;;;;;4919663;29;20175;-89
2022/09/29 11:20:13;;;;;;;4.30;3.10;;;14.30;99.90;;;;;;4918229;29;20659;-90
2022/09/29 11:23:03;;;;;;;3.33;2.58;;;14.10;99.90;;;;;;4904066;29;20273;-88
2022/09/29 11:26:01;;;;;;;6.90;3.03;;;14.00;99.90;;;;;;4919659;29;20230;-89
2022/09/29 11:28:57;;;;;;;3.40;2.28;;;13.70;99.90;;;;;;4919200;29;20179;-89
2022/09/29 11:31:27;;;;;;;6.50;2.75;;;13.40;99.90;;;;;;4887968;29;20195;-89
2022/09/29 11:34:28;;;;;;;4.53;2.78;;;13.20;99.90;;;;;;4903570;29;20214;-90
2022/09/29 11:37:14;;;;;;;5.30;2.85;;;13.00;99.90;;;;;;4903375;29;20182;-88
2022/09/29 11:39:50;;;;;;;4.72;3.13;;;13.20;99.90;;;;;;4903444;29;20181;-89
2022/09/29 11:42:36;;;;;;;8.60;3.55;;;13.40;99.90;;;;;;4903406;29;20627;-89
2022/09/29 11:45:13;;;;;;;4.90;3.47;;;13.80;99.90;;;;;;4903465;29;20201;-88
2022/09/29 11:48:12;;;;;;;4.65;3.10;;;14.00;99.90;;;;;;4903507;29;20667;-89
2022/09/29 11:51:04;;;;;;;3.88;3.30;;;14.20;99.90;;;;;;4903361;29;20234;-90
2022/09/29 11:53:49;;;;;;;6.35;3.97;;;14.20;99.90;;;;;;4903614;29;20198;-89
2022/09/29 11:56:30;;;;;;;6.82;3.33;;;13.90;99.90;;;;;;4903179;29;20195;-89
2022/09/29 11:59:18;;;;;;;4.80;3.15;;;13.70;99.90;;;;;;4918557;29;20533;-88
2022/09/29 12:02:23;;;;;;;4.47;2.90;;;13.60;99.90;;;;;;4919153;29;20262;-89
2022/09/29 12:05:22;;;;;;;9.60;3.13;;;13.60;99.90;;;;;;4828110;29;20240;-89
2022/09/29 12:08:02;;;;;;;10.40;3.53;;;13.70;99.90;;;;;;4919709;29;20175;-89
2022/09/29 12:10:50;;;;;;;4.25;2.53;;;14.00;99.90;;;;;;4918636;29;20222;-88
2022/09/29 12:13:50;;;;;;;3.53;2.45;;;14.00;99.90;;;;;;4919939;29;20198;-88
2022/09/29 12:16:33;;;;;;;2.33;1.58;;;13.90;99.90;;;;;;4917773;29;20297;-89
2022/09/29 12:19:22;;;;;;;5.00;2.42;;;13.90;99.90;;;;;;4918873;29;20223;-89
2022/09/29 12:21:54;;;;;;;3.67;2.22;;;13.80;99.90;;;;;;4918475;29;20170;-88
2022/09/29 12:24:35;;;;;;;3.83;2.20;;;13.80;99.90;;;;;;4903605;29;20173;-89
2022/09/29 12:27:18;;;;;;;2.85;2.00;;;13.90;99.90;;;;;;4902784;29;20178;-88
2022/09/29 12:29:49;;;;;;;6.97;2.30;;;14.20;99.90;;;;;;4917433;29;20630;-89
2022/09/29 12:32:32;;;;;;;16.92;2.55;;;14.40;99.90;;;;;;4918394;29;20246;-89
2022/09/29 12:35:36;;;;;;;4.95;1.80;;;14.40;99.90;;;;;;4901465;29;20209;-89
2022/09/29 12:38:14;;;;;;;1.63;1.02;;;14.30;99.90;;;;;;4904669;29;20185;-89
2022/09/29 12:41:13;;;;;;;5.47;0.80;;;14.20;99.90;;;;;;4901436;29;20175;-89
2022/09/29 12:43:52;;;;;;;19.23;2.13;;;14.20;99.90;;;;;;4899152;29;20286;-90
2022/09/29 12:46:23;;;;;;;1.73;1.00;;;14.40;99.90;;;;;;4916772;29;20253;-89
2022/09/29 12:49:28;;;;;;;2.67;1.33;;;14.70;99.90;;;;;;4905112;29;20278;-90
2022/09/29 12:51:56;;;;;;;1.40;0.90;;;15.00;99.90;;;;;;4880711;29;20251;-88
2022/09/29 12:54:31;;;;;;;3.65;1.75;;;15.40;99.90;;;;;;4898752;29;20233;-88
2022/09/29 12:57:02;;;;;;;4.22;2.28;;;15.60;99.90;;;;;;4900795;29;20197;-89
2022/09/29 12:59:58;;;;;;;3.22;2.20;;;15.70;99.90;;;;;;4901626;29;20171;-89
2022/09/29 13:02:49;;;;;;;3.80;2.20;;;15.60;99.90;;;;;;4901548;29;20257;-89
2022/09/29 13:05:24;;;;;;;3.17;1.80;;;15.50;99.90;;;;;;4917112;29;20217;-89
2022/09/29 13:08:24;;;;;;;3.00;1.85;;;15.40;99.90;;;;;;4917111;29;20221;-88
2022/09/29 13:11:10;;;;;;;2.45;1.40;;;15.10;99.90;;;;;;4917466;29;20538;-88
2022/09/29 13:14:12;;;;;;;1.73;1.40;;;14.90;99.90;;;;;;4885434;29;20675;-89
2022/09/29 13:16:57;;;;;;;2.17;1.45;;;14.80;99.90;;;;;;4888395;29;20206;-88
2022/09/29 13:19:35;;;;;;;2.20;1.40;;;14.80;99.90;;;;;;4911053;29;20185;-89
2022/09/29 13:22:29;;;;;;;2.05;1.10;;;14.90;99.90;;;;;;4936939;29;20254;-89
2022/09/29 13:25:00;;;;;;;1.50;1.10;;;15.00;99.90;;;;;;4916297;29;20228;-89
2022/09/29 13:27:32;;;;;;;5.18;1.40;;;15.10;99.90;;;;;;4915978;29;20174;-89